• Join FlightAware (Why Join?)
  • Login
  • US Flag 
09:51PM EDT


 

Airport Tracker/Info


-or-


 

Live Flight TrackerFlight Track Log ✈ JZA8019 ✈ 06-Oct-2013 ✈ CYYZ - KDTW

Flight Track Log - Related Links

Times and Time Zones

All times are in EDT time to prevent confusion due to time zone crossing. See the JZA8019 flight status page for this flight to view local times or setup timezone preferences in your user account.

Time Position Orientation Groundspeed Altitude Reporting Facility
EDT Latitude Longitude Course Direction KTS MPH feet Rate Location/Type
05:42PM 43.6667 -79.5667 36° Northeast 110 127 1,700  Level Toronto Center
05:43PM 43.6667 -79.5000 90° East 150 173 2,500 840 Climbing Toronto Center
05:44PM 43.6833 -79.4500 65° Northeast 170 196 3,400 900 Climbing Toronto Center
05:45PM 43.6833 -79.3833 90° East 180 207 4,400 960 Climbing Toronto Center
05:46PM 43.6500 -79.3833 180° South 130 150 5,400 780 Climbing Toronto Center
05:47PM 43.6000 -79.3833 180° South 130 150 6,000 600 Climbing Toronto Center
05:48PM 43.5667 -79.4000 200° South 160 184 6,600 480 Climbing Toronto Center
05:49PM 43.5167 -79.4500 216° Southwest 160 184 7,000 240 Climbing Toronto Center
05:50PM 43.4833 -79.4667 200° South 180 207 7,100 300 Climbing Toronto Center
05:51PM 43.4500 -79.5333 235° Southwest 180 207 7,600 600 Climbing Toronto Center
05:52PM 43.4167 -79.5833 227° Southwest 180 207 8,400 720 Climbing Toronto Center
05:53PM 43.4000 -79.6333 245° Southwest 170 196 9,100 780 Climbing Toronto Center
05:54PM 43.3667 -79.6833 227° Southwest 160 184 10,000 900 Climbing Toronto Center
05:55PM 43.3500 -79.7167 235° Southwest 150 173 10,900 780 Climbing Toronto Center
05:56PM 43.3167 -79.7667 228° Southwest 150 173 11,600 540 Climbing Toronto Center
05:57PM 43.2833 -79.8167 228° Southwest 160 184 12,000 180 Climbing Toronto Center
05:58PM 43.2667 -79.8833 251° West 180 207 12,000  Level Toronto Center
05:59PM 43.2167 -79.9500 224° Southwest 190 219 12,000  Level Toronto Center
06:00PM 43.2000 -80.0000 245° Southwest 200 230 12,000  Level Toronto Center
06:01PM 43.1500 -80.0667 224° Southwest 200 230 12,000  Level Toronto Center
06:02PM 43.1167 -80.1333 236° Southwest 200 230 12,000  Level Toronto Center
06:03PM 43.0833 -80.1833 228° Southwest 200 230 12,000  Level Toronto Center
06:04PM 43.0500 -80.2500 236° Southwest 200 230 12,000 60 Level Toronto Center
06:05PM 43.0167 -80.3000 228° Southwest 200 230 12,200 300 Climbing Toronto Center
06:06PM 43.0000 -80.3667 251° West 190 219 12,600 540 Climbing Toronto Center
06:07PM 42.9667 -80.4000 216° Southwest 180 207 13,300 600 Climbing Toronto Center
06:08PM 42.9333 -80.4500 228° Southwest 170 196 13,900 300 Climbing Toronto Center
06:09PM 42.9000 -80.5167 236° Southwest 180 207 14,000  Climbing Toronto Center
06:10PM 42.8667 -80.5667 228° Southwest 190 219 14,000  Level Toronto Center
06:11PM 42.8333 -80.6333 236° Southwest 200 230 14,000  Level Toronto Center
06:12PM 42.8000 -80.7000 236° Southwest 200 230 14,000  Level Toronto Center
06:13PM 42.7667 -80.7500 228° Southwest 200 230 14,000  Level Toronto Center
06:14PM 42.7167 -80.8167 224° Southwest 200 230 14,000  Level Toronto Center
06:15PM 42.6833 -80.8833 236° Southwest 210 242 14,000 300 Level Toronto Center
06:16PM 42.6833 -80.9500 270° West 200 230 14,700 720 Climbing Toronto Center
06:17PM 42.6667 -81.0167 251° West 180 207 15,500 600 Climbing Toronto Center
06:18PM 42.6667 -81.0833 270° West 160 184 16,000 240 Climbing Toronto Center
06:19PM 42.6667 -81.1500 270° West 180 207 16,000  Level Toronto Center
06:20PM 42.6500 -81.2167 251° West 190 219 16,000  Level Toronto Center
06:21PM 42.6500 -81.2833 270° West 200 230 16,000  Level Toronto Center
06:22PM 42.6333 -81.3833 257° West 210 242 16,000  Level Toronto Center
06:23PM 42.6444 -81.4206 292° West 208 239 16,000  Level Cleveland Center
06:24PM 42.6347 -81.4992 260° West 210 242 16,000 -180 Level Cleveland Center
06:25PM 42.6256 -81.5781 261° West 211 243 15,700 -660 Descending Cleveland Center
06:26PM 42.6161 -81.6661 262° West 226 260 14,700 -1,080 Descending Cleveland Center
06:27PM 42.6014 -81.7756 260° West 246 283 13,500 -1,140 Descending Cleveland Center
06:28PM 42.5903 -81.8750 261° West 252 290 12,400 -1,020 Descending Cleveland Center
06:29PM 42.5792 -81.9689 261° West 254 292 11,400 -720 Descending Cleveland Center
06:30PM 42.5675 -82.0608 260° West 251 289 11,000 -240 Descending Cleveland Center
06:31PM 42.5572 -82.1461 261° West 238 274 11,000  Level Cleveland Center
06:31PM 42.5542 -82.1761 262° West 226 260 11,000  Level Cleveland Center
06:32PM 42.5472 -82.2250 259° West 219 252 11,000  Level Cleveland Center
06:32PM 42.5456 -82.2428 263° West 212 244 11,000  Level Cleveland Center
06:33PM 42.5372 -82.3039 260° West 214 246 11,000  Level Cleveland Center
06:33PM 42.5361 -82.3208 265° West 212 244 11,000  Level Cleveland Center
06:34PM 42.5253 -82.3981 259° West 212 244 11,000  Level Cleveland Center
06:34PM 42.5256 -82.4131 271° West 214 246 11,000 60 Level Cleveland Center
06:35PM 42.5147 -82.4786 257° West 215 247 11,100  Climbing Cleveland Center
06:35PM 42.5164 -82.4853 289° West 219 252 11,000 -120 Descending Cleveland Center
06:36PM 42.5031 -82.5631 257° West 224 258 11,000 -480 Level Cleveland Center
06:37PM 42.4736 -82.6439 244° Southwest 226 260 10,100 -780 Descending Cleveland Center
06:37PM 42.4756 -82.6347 74° East 217 250 10,200 -1,020 Climbing Cleveland Center
06:38PM 42.4472 -82.7197 246° West 221 254 9,100 -1,020 Descending Cleveland Center
06:38PM 42.4475 -82.7103 88° East 221 254 9,200 -120 Climbing Cleveland Center
06:39PM 42.4211 -82.7925 247° West 206 237 9,000 -240 Descending Cleveland Center
06:40PM 42.4222 -82.7808 83° East 215 247 9,000 -960 Level Cleveland Center
06:41PM 42.3989 -82.8700 251° West 221 254 8,000 -1,080 Descending Cleveland Center
06:41PM 42.4022 -82.8778 300° West 232 267 7,900 -1,020 Descending Cleveland Center
06:42PM 42.4292 -82.9575 295° West 255 293 7,000 -480 Descending Cleveland Center
06:43PM 42.4642 -83.0331 302° West 199 229 7,000 -240 Level Cleveland Center
06:44PM 42.4994 -83.0944 308° West 197 227 6,600 -300 Descending Cleveland Center
06:44PM 42.4972 -83.0817 103° East 207 238 6,700 -660 Climbing Cleveland Center
06:45PM 42.4769 -83.1422 246° West 158 182 6,000 -720 Descending Cleveland Center
06:45PM 42.4775 -83.1386 78° East 176 203 6,000 -540 Level Cleveland Center
06:46PM 42.4389 -83.1739 214° Southwest 162 186 5,500 -720 Descending Cleveland Center
06:46PM 42.4314 -83.1769 197° South 164 189 5,300 -900 Descending Cleveland Center
06:47PM 42.3969 -83.2019 208° Southwest 166 191 4,600 -900 Descending Cleveland Center
06:47PM 42.3906 -83.2058 204° Southwest 163 188 4,400 -900 Descending Cleveland Center
06:48PM 42.3569 -83.2331 211° Southwest 164 189 3,700 -780 Descending Cleveland Center
06:48PM 42.3506 -83.2350 193° South 164 189 3,600 -900 Descending Cleveland Center
06:48PM 42.3214 -83.2592 211° Southwest 154 177 2,900 -900 Descending Cleveland Center
06:49PM 42.3122 -83.2633 199° South 159 183 2,700 -840 Descending Cleveland Center
06:50PM 42.2858 -83.2853 212° Southwest 141 162 2,100 -720 Descending Cleveland Center
06:50PM 42.2772 -83.2906 204° Southwest 149 171 2,000 -720 Descending Cleveland Center
06:51PM 42.2561 -83.3150 221° Southwest 110 127 1,400 -780 Descending Cleveland Center
06:51PM 42.2511 -83.3181 204° Southwest 132 152 1,200 -300 Descending Cleveland Center
06:52PM 42.2211 -83.3425 211° Southwest 122 140 1,000 -240 Descending Cleveland Center